Time;durP1;ratioP1;P1;durP2;ratioP2;P2;SDS_P1;SDS_P2;PMS_P1;PMS_P2;Temp;Humidity;BMP_temperature;BMP_pressure;BME280_temperature;BME280_humidity;BME280_pressure;Samples;Min_cycle;Max_cycle;Signal;HPM_P1;HPM_P2
2023/01/05 00:01:37;;;;;;;;;;;;;;;5.44;68.81;99486.66;5079243;28;1855;-79
2023/01/05 00:04:04;;;;;;;;;;;;;;;5.41;68.66;99489.78;5078503;28;1956;-79
2023/01/05 00:06:31;;;;;;;;;;;;;;;5.32;69.05;99499.03;5079594;28;1640;-79
2023/01/05 00:08:58;;;;;;;;;;;;;;;5.35;68.98;99495.94;5081167;28;1800;-79
2023/01/05 00:22:35;;;;;;;;;;;;;;;5.38;68.84;99500.88;5081379;28;1764;-79
2023/01/05 00:25:03;;;;;;;;;;;;;;;5.32;69.05;99500.88;5095895;28;1845;-80
2023/01/05 00:27:31;;;;;;;;;;;;;;;5.38;68.83;99508.88;5080283;28;1697;-79
2023/01/05 00:29:57;;;;;;;;;;;;;;;5.36;68.66;99510.13;5077652;28;2100;-79
2023/01/05 00:32:24;;;;;;;;;;;;;;;5.32;69.02;99516.91;5077145;28;1987;-79
2023/01/05 00:34:53;;;;;;;;;;;;;;;5.33;68.99;99521.22;5077778;28;1992;-79
2023/01/05 00:37:21;;;;;;;;;;;;;;;5.32;68.94;99527.56;5080033;28;2318;-79
2023/01/05 00:39:48;;;;;;;;;;;;;;;5.25;69.28;99540.94;5079295;28;1908;-78
2023/01/05 00:42:14;;;;;;;;;;;;;;;5.31;68.97;99537.44;5094564;28;1845;-79
2023/01/05 00:44:41;;;;;;;;;;;;;;;5.36;68.87;99534.16;5080825;28;1982;-78
2023/01/05 00:47:08;;;;;;;;;;;;;;;5.27;69.11;99544.25;5075131;28;1978;-78
2023/01/05 00:49:35;;;;;;;;;;;;;;;5.24;69.29;99550.00;5081248;28;1729;-79
2023/01/05 00:52:02;;;;;;;;;;;;;;;5.14;69.56;99546.94;5084238;28;2077;-79
2023/01/05 00:54:29;;;;;;;;;;;;;;;5.33;69.16;99543.41;5083789;28;1780;-79
2023/01/05 00:56:56;;;;;;;;;;;;;;;5.32;69.01;99549.75;5084731;28;1804;-79
2023/01/05 00:59:26;;;;;;;;;;;;;;;5.36;68.87;99555.50;5082571;28;1986;-78
2023/01/05 01:01:53;;;;;;;;;;;;;;;5.29;69.20;99557.38;5081590;28;1959;-78
2023/01/05 01:04:20;;;;;;;;;;;;;;;5.36;68.99;99560.84;5081288;28;1918;-78
2023/01/05 01:06:47;;;;;;;;;;;;;;;5.32;68.98;99560.44;5082939;28;1924;-79
2023/01/05 01:09:14;;;;;;;;;;;;;;;5.34;68.98;99565.56;5080809;28;2036;-79
2023/01/05 01:11:41;;;;;;;;;;;;;;;5.28;69.11;99577.91;5082900;28;2026;-79
2023/01/05 01:14:08;;;;;;;;;;;;;;;5.25;69.24;99583.66;5082188;28;1895;-79
2023/01/05 01:16:34;;;;;;;;;;;;;;;5.23;69.40;99581.22;5082088;28;1856;-79
2023/01/05 01:19:01;;;;;;;;;;;;;;;5.33;69.29;99593.31;5082144;28;1873;-79
2023/01/05 01:21:29;;;;;;;;;;;;;;;5.34;68.93;99600.28;5082788;28;2570;-78
2023/01/05 01:23:56;;;;;;;;;;;;;;;5.38;68.94;99588.16;5083294;28;1922;-79
2023/01/05 01:26:23;;;;;;;;;;;;;;;5.30;69.02;99599.88;5082782;28;1743;-79
2023/01/05 01:28:50;;;;;;;;;;;;;;;5.29;69.16;99605.41;5082593;28;1980;-78
2023/01/05 01:31:17;;;;;;;;;;;;;;;5.36;68.80;99619.59;5082877;28;1809;-79
2023/01/05 01:33:43;;;;;;;;;;;;;;;5.37;69.09;99626.56;5096520;28;2097;-78
2023/01/05 01:36:12;;;;;;;;;;;;;;;5.30;69.11;99629.25;5083681;28;1764;-79
2023/01/05 01:38:38;;;;;;;;;;;;;;;5.23;69.52;99647.13;5099222;28;1810;-79
2023/01/05 01:41:06;;;;;;;;;;;;;;;5.32;69.17;99640.53;5099636;28;1811;-79
2023/01/05 01:43:33;;;;;;;;;;;;;;;5.37;69.00;99642.59;5079602;28;1777;-78
2023/01/05 01:45:59;;;;;;;;;;;;;;;5.33;69.12;99652.06;5081004;28;2119;-79
2023/01/05 01:48:26;;;;;;;;;;;;;;;5.48;68.69;99649.97;5082662;28;1968;-79
2023/01/05 01:50:54;;;;;;;;;;;;;;;5.31;69.23;99660.25;5083516;28;2540;-79
2023/01/05 01:53:21;;;;;;;;;;;;;;;5.39;68.87;99657.38;5082528;28;2010;-79
2023/01/05 01:55:47;;;;;;;;;;;;;;;5.43;68.59;99663.94;5080086;28;4277;-79
2023/01/05 01:58:14;;;;;;;;;;;;;;;5.45;68.74;99669.09;5082077;28;2798;-79
2023/01/05 02:00:40;;;;;;;;;;;;;;;5.45;68.63;99677.09;5082052;28;3045;-79
2023/01/05 02:03:08;;;;;;;;;;;;;;;5.42;68.81;99698.88;5078286;28;1736;-79
2023/01/05 02:05:36;;;;;;;;;;;;;;;5.42;68.66;99689.00;5083475;28;1980;-79
2023/01/05 02:08:03;;;;;;;;;;;;;;;5.43;68.84;99695.16;5083489;28;1765;-79
2023/01/05 02:10:29;;;;;;;;;;;;;;;5.46;68.60;99700.09;5081825;28;1923;-79
2023/01/05 02:12:57;;;;;;;;;;;;;;;5.43;68.63;99706.66;5082193;28;2861;-78
2023/01/05 02:15:24;;;;;;;;;;;;;;;5.49;68.53;99706.88;5078356;28;1981;-79
2023/01/05 02:17:52;;;;;;;;;;;;;;;5.40;68.89;99719.63;5080428;28;1832;-79
2023/01/05 02:20:21;;;;;;;;;;;;;;;5.41;68.86;99723.91;5080413;28;1985;-79
2023/01/05 02:22:49;;;;;;;;;;;;;;;5.39;68.85;99728.66;5075249;28;1885;-78
2023/01/05 02:25:16;;;;;;;;;;;;;;;5.39;68.76;99726.81;5080147;28;2530;-79
2023/01/05 02:27:44;;;;;;;;;;;;;;;5.45;68.63;99736.69;5077239;28;1820;-78
2023/01/05 02:30:10;;;;;;;;;;;;;;;5.45;68.75;99741.19;5080758;28;1525;-79
2023/01/05 02:32:37;;;;;;;;;;;;;;;5.33;69.12;99750.84;5081307;28;1954;-79
2023/01/05 02:35:05;;;;;;;;;;;;;;;5.44;68.61;99752.88;5080561;28;1852;-78
2023/01/05 02:37:31;;;;;;;;;;;;;;;5.47;68.69;99760.50;5077874;28;1844;-79
2023/01/05 02:39:59;;;;;;;;;;;;;;;5.43;68.72;99767.28;5079538;28;1928;-79
2023/01/05 02:42:26;;;;;;;;;;;;;;;5.45;68.66;99771.41;5080589;28;1422;-78
2023/01/05 02:44:52;;;;;;;;;;;;;;;5.44;68.85;99775.09;5079798;28;1806;-79
2023/01/05 02:47:19;;;;;;;;;;;;;;;5.39;68.74;99776.75;5078834;28;1792;-78
2023/01/05 02:49:46;;;;;;;;;;;;;;;5.45;68.74;99782.06;5080314;28;1665;-79
2023/01/05 02:52:13;;;;;;;;;;;;;;;5.38;68.92;99781.25;5078264;28;2316;-79
2023/01/05 02:54:39;;;;;;;;;;;;;;;5.35;69.27;99789.66;5084048;28;1842;-79
2023/01/05 02:57:06;;;;;;;;;;;;;;;5.36;69.23;99791.31;5082053;28;1697;-78
2023/01/05 02:59:32;;;;;;;;;;;;;;;5.42;68.90;99789.69;5079189;28;1812;-78
2023/01/05 03:02:00;;;;;;;;;;;;;;;5.40;69.12;99797.06;5093485;27;1852;-79
2023/01/05 03:04:27;;;;;;;;;;;;;;;5.34;69.18;99797.88;5081062;28;1749;-78
2023/01/05 03:06:55;;;;;;;;;;;;;;;5.37;68.96;99805.50;5078391;28;1913;-78
2023/01/05 03:09:24;;;;;;;;;;;;;;;5.39;69.03;99804.25;5078856;28;1975;-79
2023/01/05 03:14:36;;;;;;;;;;;;;;;5.34;69.08;99801.38;5080247;28;1898;-79
2023/01/05 03:17:03;;;;;;;;;;;;;;;5.20;69.82;99807.72;5079951;28;2042;-78
2023/01/05 03:19:35;;;;;;;;;;;;;;;5.27;69.54;99818.44;5078983;28;1827;-78
2023/01/05 03:35:48;;;;;;;;;;;;;;;5.30;69.33;99845.53;5077250;28;1909;-79
2023/01/05 03:38:16;;;;;;;;;;;;;;;5.33;69.21;99853.16;5078073;28;1917;-79
2023/01/05 03:40:42;;;;;;;;;;;;;;;5.51;68.59;99844.53;5078798;28;1828;-79
2023/01/05 03:43:10;;;;;;;;;;;;;;;5.33;69.14;99852.31;5080221;28;2487;-79
2023/01/05 03:45:39;;;;;;;;;;;;;;;5.30;69.28;99853.56;5075626;28;1900;-79
2023/01/05 03:48:05;;;;;;;;;;;;;;;5.37;69.20;99850.88;5075604;28;1672;-79
2023/01/05 03:50:32;;;;;;;;;;;;;;;5.26;69.50;99851.47;5058443;28;1873;-78
2023/01/05 03:52:58;;;;;;;;;;;;;;;5.35;69.07;99861.75;5080741;28;1941;-78
2023/01/05 03:55:26;;;;;;;;;;;;;;;5.40;68.83;99861.97;5079978;28;1781;-79
2023/01/05 03:57:54;;;;;;;;;;;;;;;5.34;69.27;99868.13;5096168;28;1824;-78
2023/01/05 04:00:21;;;;;;;;;;;;;;;5.37;69.04;99888.28;5077083;28;1705;-78
2023/01/05 04:02:48;;;;;;;;;;;;;;;5.36;69.17;99882.13;5076404;28;1808;-78
2023/01/05 04:05:15;;;;;;;;;;;;;;;5.38;69.04;99896.09;5069286;28;1928;-78
2023/01/05 04:07:41;;;;;;;;;;;;;;;5.38;68.90;99898.75;5071088;28;1693;-79
2023/01/05 04:10:08;;;;;;;;;;;;;;;5.36;69.01;99906.16;5078120;28;1947;-78
2023/01/05 04:12:35;;;;;;;;;;;;;;;5.31;69.24;99907.78;5077968;28;1910;-79
2023/01/05 04:15:04;;;;;;;;;;;;;;;5.40;68.92;99918.06;5074586;28;1781;-79
2023/01/05 04:17:33;;;;;;;;;;;;;;;5.41;68.95;99918.88;5075237;28;1700;-78
2023/01/05 04:19:59;;;;;;;;;;;;;;;5.34;69.14;99928.72;5078707;28;1743;-79
2023/01/05 04:22:26;;;;;;;;;;;;;;;5.34;69.19;99932.22;5070985;28;1949;-79
2023/01/05 04:24:54;;;;;;;;;;;;;;;5.38;69.16;99937.97;5076157;28;3996;-78
2023/01/05 04:27:20;;;;;;;;;;;;;;;5.46;68.80;99935.13;5081870;28;3279;-79
2023/01/05 04:29:47;;;;;;;;;;;;;;;5.33;69.27;99932.44;5081476;28;1820;-79
2023/01/05 04:32:13;;;;;;;;;;;;;;;5.34;69.09;99934.06;5082110;28;3174;-78
2023/01/05 04:34:42;;;;;;;;;;;;;;;5.36;69.19;99948.88;5085518;28;1913;-79
2023/01/05 04:37:09;;;;;;;;;;;;;;;5.32;69.09;99952.13;5083639;28;1922;-79
2023/01/05 04:39:36;;;;;;;;;;;;;;;5.27;69.32;99954.59;5096737;27;1859;-78
2023/01/05 04:42:02;;;;;;;;;;;;;;;5.27;69.47;99963.44;5049783;28;1619;-79
2023/01/05 04:44:30;;;;;;;;;;;;;;;5.20;69.56;99966.03;5076542;28;3265;-79
2023/01/05 04:46:57;;;;;;;;;;;;;;;5.29;69.18;99972.03;5081084;28;1833;-78
2023/01/05 04:49:23;;;;;;;;;;;;;;;5.31;69.11;99982.53;5095369;27;1718;-79
2023/01/05 04:51:51;;;;;;;;;;;;;;;5.32;69.27;99985.00;5080990;28;1861;-78
2023/01/05 04:54:18;;;;;;;;;;;;;;;5.28;69.39;99986.44;5079082;28;2005;-78
2023/01/05 04:56:46;;;;;;;;;;;;;;;5.37;69.04;99992.41;5054489;28;2817;-78
2023/01/05 04:59:13;;;;;;;;;;;;;;;5.34;69.15;100007.00;5077749;28;1898;-78
2023/01/05 05:01:40;;;;;;;;;;;;;;;5.31;69.08;100004.72;5084074;28;1642;-78
2023/01/05 05:04:07;;;;;;;;;;;;;;;5.30;69.25;100013.75;5054891;28;1645;-78
2023/01/05 05:06:33;;;;;;;;;;;;;;;5.34;69.05;100015.00;5083138;28;1606;-78
2023/01/05 05:09:01;;;;;;;;;;;;;;;5.31;69.22;100028.75;5083600;28;1688;-79
2023/01/05 05:11:28;;;;;;;;;;;;;;;5.20;69.63;100030.13;5084605;28;1604;-78
2023/01/05 05:13:54;;;;;;;;;;;;;;;5.24;69.34;100030.56;5082560;28;1950;-78
2023/01/05 05:16:22;;;;;;;;;;;;;;;5.25;69.54;100037.56;5081115;28;1797;-78
2023/01/05 05:18:48;;;;;;;;;;;;;;;5.31;69.20;100034.09;5081380;28;1601;-78
2023/01/05 05:21:16;;;;;;;;;;;;;;;5.26;69.43;100047.19;5079326;28;1780;-78
2023/01/05 05:23:44;;;;;;;;;;;;;;;5.29;69.25;100064.69;5079923;28;1761;-78
2023/01/05 05:26:11;;;;;;;;;;;;;;;5.22;69.46;100064.66;5080287;28;1814;-78
2023/01/05 05:28:37;;;;;;;;;;;;;;;5.30;69.31;100071.69;5082079;28;1926;-79
2023/01/05 05:31:04;;;;;;;;;;;;;;;5.29;69.29;100078.03;5079636;28;2010;-78
2023/01/05 05:33:31;;;;;;;;;;;;;;;5.26;69.43;100076.56;5080106;28;1910;-79
2023/01/05 05:35:58;;;;;;;;;;;;;;;5.29;69.20;100086.03;5080551;28;1854;-79
2023/01/05 05:38:25;;;;;;;;;;;;;;;5.24;69.39;100087.47;5081397;28;1840;-79
2023/01/05 05:40:53;;;;;;;;;;;;;;;5.25;69.38;100098.97;5058431;28;1750;-79
2023/01/05 05:43:22;;;;;;;;;;;;;;;5.27;69.42;100101.47;5077665;28;1787;-78
2023/01/05 05:45:48;;;;;;;;;;;;;;;5.24;69.49;100113.34;5073664;28;3633;-78
2023/01/05 05:48:15;;;;;;;;;;;;;;;5.17;69.79;100115.13;5092002;27;1761;-79
2023/01/05 05:50:43;;;;;;;;;;;;;;;5.29;69.23;100115.41;5080856;28;1713;-79
2023/01/05 05:53:09;;;;;;;;;;;;;;;5.26;69.33;100113.97;5081895;28;1933;-78
2023/01/05 05:55:38;;;;;;;;;;;;;;;5.19;69.58;100124.59;5081345;28;1583;-78
2023/01/05 05:58:06;;;;;;;;;;;;;;;5.28;69.20;100119.13;5080119;28;1940;-78
2023/01/05 06:00:33;;;;;;;;;;;;;;;5.29;69.18;100120.75;5080714;28;1650;-79
2023/01/05 06:03:02;;;;;;;;;;;;;;;5.19;69.69;100127.28;5085273;28;1816;-79
2023/01/05 06:05:28;;;;;;;;;;;;;;;5.22;69.51;100134.06;5082569;28;1743;-79
2023/01/05 06:07:55;;;;;;;;;;;;;;;5.29;69.15;100142.94;5082993;28;1549;-79
2023/01/05 06:10:22;;;;;;;;;;;;;;;5.29;69.29;100148.28;5083500;28;1467;-79
2023/01/05 06:12:49;;;;;;;;;;;;;;;5.36;69.05;100154.50;5081059;28;2660;-79
2023/01/05 06:15:17;;;;;;;;;;;;;;;5.35;69.44;100160.03;5093069;27;1821;-78
2023/01/05 06:17:44;;;;;;;;;;;;;;;5.35;69.17;100166.19;5084570;28;1688;-79
2023/01/05 06:20:12;;;;;;;;;;;;;;;5.44;68.93;100169.53;5083047;28;1880;-78
2023/01/05 06:22:39;;;;;;;;;;;;;;;5.40;68.88;100170.97;5077948;28;989;-79
2023/01/05 06:25:07;;;;;;;;;;;;;;;5.31;69.11;100172.94;5078298;28;1385;-78
2023/01/05 06:27:34;;;;;;;;;;;;;;;5.42;69.10;100187.63;5079149;28;1713;-78
2023/01/05 06:30:00;;;;;;;;;;;;;;;5.41;68.93;100200.16;5081058;28;1638;-78
2023/01/05 06:32:27;;;;;;;;;;;;;;;5.35;69.15;100195.56;5078728;28;1891;-78
2023/01/05 06:34:54;;;;;;;;;;;;;;;5.43;69.04;100205.28;5077409;28;1913;-78
2023/01/05 06:37:20;;;;;;;;;;;;;;;5.35;69.14;100214.25;5079817;28;2163;-78
2023/01/05 06:39:47;;;;;;;;;;;;;;;5.38;69.31;100226.41;5079299;28;2021;-78
2023/01/05 06:42:13;;;;;;;;;;;;;;;5.41;68.90;100228.69;5079450;28;1815;-78
2023/01/05 06:44:41;;;;;;;;;;;;;;;5.50;68.47;100237.38;5079639;28;1944;-78
2023/01/05 06:47:09;;;;;;;;;;;;;;;5.36;69.20;100253.31;5081085;28;1593;-78
2023/01/05 06:49:36;;;;;;;;;;;;;;;5.43;68.93;100251.53;5059857;28;1521;-79
2023/01/05 06:52:04;;;;;;;;;;;;;;;5.40;68.86;100257.25;5080835;28;1806;-78
2023/01/05 06:54:31;;;;;;;;;;;;;;;5.37;69.04;100267.50;5076699;28;1913;-78
2023/01/05 06:56:58;;;;;;;;;;;;;;;5.45;68.83;100262.84;5082384;28;1656;-78
2023/01/05 06:59:25;;;;;;;;;;;;;;;5.35;69.04;100275.69;5080314;28;1501;-78
2023/01/05 07:01:52;;;;;;;;;;;;;;;5.35;69.22;100281.03;5079909;28;1663;-79
2023/01/05 07:04:19;;;;;;;;;;;;;;;5.38;69.10;100287.84;5081410;28;1506;-78
2023/01/05 07:06:45;;;;;;;;;;;;;;;5.49;68.76;100287.31;5081118;28;1641;-78
2023/01/05 07:09:12;;;;;;;;;;;;;;;5.56;68.53;100290.03;5080847;28;1906;-79
2023/01/05 07:11:38;;;;;;;;;;;;;;;5.44;68.85;100292.41;5077685;28;4133;-79
2023/01/05 07:14:05;;;;;;;;;;;;;;;5.50;68.67;100302.34;5075851;28;3359;-78
2023/01/05 07:16:31;;;;;;;;;;;;;;;5.49;68.92;100307.88;5093969;27;2099;-78
2023/01/05 07:18:58;;;;;;;;;;;;;;;5.45;68.91;100315.44;5079212;28;1870;-78
2023/01/05 07:21:26;;;;;;;;;;;;;;;5.50;68.73;100320.19;5069332;28;1677;-78
2023/01/05 07:23:53;;;;;;;;;;;;;;;5.56;68.55;100324.75;5074567;28;1648;-78
2023/01/05 07:26:20;;;;;;;;;;;;;;;5.41;69.01;100325.69;5082807;28;1871;-79
2023/01/05 07:28:50;;;;;;;;;;;;;;;5.55;68.58;100339.16;5082945;28;1472;-79
2023/01/05 07:31:17;;;;;;;;;;;;;;;5.50;68.83;100339.75;5077414;28;1646;-79
2023/01/05 07:33:44;;;;;;;;;;;;;;;5.59;68.56;100348.44;5083071;28;2028;-79
2023/01/05 07:36:12;;;;;;;;;;;;;;;5.57;68.55;100351.31;5082693;28;1655;-79
2023/01/05 07:38:41;;;;;;;;;;;;;;;5.56;68.63;100364.84;5078234;28;1492;-78
2023/01/05 07:41:08;;;;;;;;;;;;;;;5.43;69.01;100369.03;5080389;28;1597;-79
2023/01/05 07:43:36;;;;;;;;;;;;;;;5.51;69.04;100369.94;5081628;28;1581;-78
2023/01/05 07:46:03;;;;;;;;;;;;;;;5.47;68.91;100373.00;5048342;28;1629;-78
2023/01/05 07:48:31;;;;;;;;;;;;;;;5.50;68.79;100382.50;5069746;28;1593;-78
2023/01/05 07:50:58;;;;;;;;;;;;;;;5.51;68.72;100385.97;5077013;28;1728;-79
2023/01/05 07:53:25;;;;;;;;;;;;;;;5.54;68.74;100397.09;5079508;28;1938;-79
2023/01/05 07:55:52;;;;;;;;;;;;;;;5.58;68.60;100392.19;5082459;28;1583;-79
2023/01/05 07:58:19;;;;;;;;;;;;;;;5.50;68.91;100403.84;5078240;28;1585;-78
2023/01/05 08:00:46;;;;;;;;;;;;;;;5.46;68.95;100402.56;5082369;28;1548;-79
2023/01/05 08:03:14;;;;;;;;;;;;;;;5.58;68.84;100409.06;5085181;28;1533;-79
2023/01/05 08:05:41;;;;;;;;;;;;;;;5.59;68.52;100417.88;5065339;28;1496;-79
2023/01/05 08:08:08;;;;;;;;;;;;;;;5.55;68.77;100413.97;5084957;28;1865;-78
2023/01/05 08:10:35;;;;;;;;;;;;;;;5.57;68.71;100427.97;5084059;28;1517;-79
2023/01/05 08:15:47;;;;;;;;;;;;;;;5.52;68.80;100433.03;5081272;28;1840;-78
2023/01/05 08:18:14;;;;;;;;;;;;;;;5.45;69.04;100449.00;5081854;28;1537;-79
2023/01/05 08:20:41;;;;;;;;;;;;;;;5.43;69.28;100443.84;5054358;28;1590;-78
2023/01/05 08:23:08;;;;;;;;;;;;;;;5.38;69.54;100453.44;5085399;28;1537;-78
2023/01/05 08:25:36;;;;;;;;;;;;;;;5.49;69.02;100457.47;5082564;28;1685;-78
2023/01/05 08:28:04;;;;;;;;;;;;;;;5.54;68.87;100469.25;5080857;28;4381;-78
2023/01/05 08:30:31;;;;;;;;;;;;;;;5.35;69.52;100467.16;5081219;28;1606;-79
2023/01/05 08:32:58;;;;;;;;;;;;;;;5.34;69.46;100479.69;5086003;28;1355;-79
2023/01/05 08:35:25;;;;;;;;;;;;;;;5.42;69.14;100487.59;5084477;28;1926;-79
2023/01/05 08:37:52;;;;;;;;;;;;;;;5.45;69.00;100492.56;5084507;28;1488;-79
2023/01/05 08:40:19;;;;;;;;;;;;;;;5.42;69.14;100500.13;5083471;28;1596;-79
2023/01/05 08:42:47;;;;;;;;;;;;;;;5.43;69.18;100507.13;5083314;28;1676;-79
2023/01/05 08:45:15;;;;;;;;;;;;;;;5.53;68.77;100515.69;5086724;28;1695;-79
2023/01/05 08:47:44;;;;;;;;;;;;;;;5.43;68.94;100536.50;5081199;28;1562;-79
2023/01/05 08:50:11;;;;;;;;;;;;;;;5.34;69.40;100532.28;5055733;28;1778;-79
2023/01/05 08:52:38;;;;;;;;;;;;;;;5.44;69.14;100531.00;5082973;28;1539;-79
2023/01/05 08:55:06;;;;;;;;;;;;;;;5.49;68.84;100541.09;5085179;28;1941;-78
2023/01/05 08:57:34;;;;;;;;;;;;;;;5.36;69.38;100547.09;5082443;28;1892;-79
2023/01/05 09:00:01;;;;;;;;;;;;;;;5.34;69.54;100550.97;5083824;28;1608;-78
2023/01/05 09:02:28;;;;;;;;;;;;;;;5.32;69.64;100551.16;5081589;28;1742;-79
2023/01/05 09:04:54;;;;;;;;;;;;;;;5.35;69.33;100561.47;5085319;28;1567;-79
2023/01/05 09:07:21;;;;;;;;;;;;;;;5.35;69.52;100566.78;5082956;28;1457;-79
2023/01/05 09:09:47;;;;;;;;;;;;;;;5.38;69.16;100574.47;5081526;28;1513;-79
2023/01/05 09:12:14;;;;;;;;;;;;;;;5.34;69.48;100581.19;5070585;28;2472;-79
2023/01/05 09:14:41;;;;;;;;;;;;;;;5.37;69.53;100590.66;5077846;28;3479;-79
2023/01/05 09:17:08;;;;;;;;;;;;;;;5.35;69.52;100596.19;5083019;28;1688;-79
2023/01/05 09:19:35;;;;;;;;;;;;;;;5.46;69.06;100600.25;5084661;28;2872;-78
2023/01/05 09:22:05;;;;;;;;;;;;;;;5.34;69.34;100599.88;5084346;28;1891;-79
2023/01/05 09:24:32;;;;;;;;;;;;;;;5.38;69.38;100611.00;5084265;28;1728;-79
2023/01/05 09:26:59;;;;;;;;;;;;;;;5.47;68.88;100617.91;5091570;28;1503;-79
2023/01/05 09:29:25;;;;;;;;;;;;;;;5.44;69.09;100620.97;5083320;28;1787;-79
2023/01/05 09:31:52;;;;;;;;;;;;;;;5.51;68.85;100619.22;5099267;28;2434;-79
2023/01/05 09:34:19;;;;;;;;;;;;;;;5.44;69.20;100634.31;5083414;28;1901;-79
2023/01/05 09:36:46;;;;;;;;;;;;;;;5.46;69.00;100637.63;5083365;28;1597;-79
2023/01/05 09:39:13;;;;;;;;;;;;;;;5.38;69.22;100640.41;5084900;28;1078;-79
2023/01/05 09:41:39;;;;;;;;;;;;;;;5.45;69.18;100641.34;5066685;28;1640;-79
2023/01/05 09:44:07;;;;;;;;;;;;;;;5.53;69.02;100646.59;5062897;28;2494;-79
2023/01/05 09:46:33;;;;;;;;;;;;;;;5.43;69.01;100660.19;5082744;28;1885;-79
2023/01/05 09:49:00;;;;;;;;;;;;;;;5.54;68.91;100660.78;5090496;28;1877;-79
2023/01/05 09:51:28;;;;;;;;;;;;;;;5.49;68.74;100663.97;5083573;28;1041;-79
2023/01/05 09:53:55;;;;;;;;;;;;;;;5.46;69.07;100656.34;5083986;28;1906;-79
2023/01/05 09:56:22;;;;;;;;;;;;;;;5.55;68.71;100659.75;5091198;28;1202;-79
2023/01/05 09:58:49;;;;;;;;;;;;;;;5.43;68.99;100667.38;5082650;28;1596;-79
2023/01/05 10:01:16;;;;;;;;;;;;;;;5.54;68.96;100668.78;5082844;28;1691;-79
2023/01/05 10:03:43;;;;;;;;;;;;;;;5.43;69.10;100673.56;5083107;28;1439;-79
2023/01/05 10:06:10;;;;;;;;;;;;;;;5.51;68.84;100669.97;5084981;28;996;-79
2023/01/05 10:08:37;;;;;;;;;;;;;;;5.64;68.51;100672.00;5084272;28;1757;-79
2023/01/05 10:13:48;;;;;;;;;;;;;;;5.61;68.59;100678.53;5083896;28;1910;-79
2023/01/05 10:16:16;;;;;;;;;;;;;;;5.68;68.54;100678.66;5083628;28;1478;-79
2023/01/05 10:18:43;;;;;;;;;;;;;;;5.58;68.78;100686.09;5090375;28;1771;-79
2023/01/05 10:21:10;;;;;;;;;;;;;;;5.48;69.19;100694.41;5082853;28;1326;-79
2023/01/05 10:23:36;;;;;;;;;;;;;;;5.54;68.97;100695.50;5083675;28;1127;-79
2023/01/05 10:26:04;;;;;;;;;;;;;;;5.50;68.92;100703.06;5090789;28;1175;-79
2023/01/05 10:28:30;;;;;;;;;;;;;;;5.54;68.97;100709.69;5080727;28;1710;-79
2023/01/05 10:30:57;;;;;;;;;;;;;;;5.59;68.75;100707.31;5082790;28;1553;-79
2023/01/05 10:33:24;;;;;;;;;;;;;;;5.58;68.67;100710.97;5082433;28;1446;-78
2023/01/05 10:35:50;;;;;;;;;;;;;;;5.64;68.43;100710.22;5083228;28;1917;-79
2023/01/05 10:38:17;;;;;;;;;;;;;;;5.66;68.35;100723.44;5081501;28;1895;-78
2023/01/05 10:40:44;;;;;;;;;;;;;;;5.76;68.19;100715.13;5083978;28;886;-79
2023/01/05 10:43:11;;;;;;;;;;;;;;;5.57;68.51;100717.34;5089541;28;1778;-79
2023/01/05 10:45:38;;;;;;;;;;;;;;;5.58;68.70;100716.31;5081372;28;1730;-79
2023/01/05 10:48:07;;;;;;;;;;;;;;;5.70;68.25;100730.88;5081891;28;937;-79
2023/01/05 10:50:34;;;;;;;;;;;;;;;5.64;68.61;100730.78;5081588;28;1733;-79
2023/01/05 10:53:02;;;;;;;;;;;;;;;5.67;68.30;100733.91;5082162;28;1057;-79
2023/01/05 10:55:30;;;;;;;;;;;;;;;5.72;68.23;100736.06;5082833;28;1910;-79
2023/01/05 10:57:57;;;;;;;;;;;;;;;5.77;68.21;100748.88;5082841;28;1303;-79
2023/01/05 11:00:24;;;;;;;;;;;;;;;5.74;68.35;100744.72;5081117;28;1845;-79
2023/01/05 11:02:52;;;;;;;;;;;;;;;5.79;68.08;100755.69;5098621;28;1448;-79
2023/01/05 11:05:19;;;;;;;;;;;;;;;5.70;68.56;100752.25;5083366;28;1295;-79
2023/01/05 11:07:45;;;;;;;;;;;;;;;5.72;68.14;100743.25;5081403;28;1700;-79
2023/01/05 11:10:12;;;;;;;;;;;;;;;5.72;68.44;100749.41;5080982;28;1789;-78
2023/01/05 11:12:41;;;;;;;;;;;;;;;5.78;68.35;100755.88;5081667;28;1327;-79
2023/01/05 11:15:09;;;;;;;;;;;;;;;5.81;67.88;100753.66;5081892;28;1968;-79
2023/01/05 11:17:36;;;;;;;;;;;;;;;5.84;68.04;100765.84;5084097;28;1056;-79
2023/01/05 11:20:05;;;;;;;;;;;;;;;5.87;67.75;100776.16;5097837;28;1406;-79
2023/01/05 11:22:33;;;;;;;;;;;;;;;5.86;67.71;100777.19;5081718;28;1337;-79
2023/01/05 11:25:00;;;;;;;;;;;;;;;5.83;68.07;100786.38;5081653;28;1708;-79
2023/01/05 11:27:28;;;;;;;;;;;;;;;5.75;68.42;100791.00;5081841;28;1709;-79
2023/01/05 11:29:55;;;;;;;;;;;;;;;5.75;68.48;100796.34;5081562;28;1769;-79
2023/01/05 11:32:22;;;;;;;;;;;;;;;5.84;68.02;100804.06;5081902;28;1617;-79
2023/01/05 11:34:50;;;;;;;;;;;;;;;5.83;68.04;100806.94;5082786;28;1979;-79
2023/01/05 11:37:17;;;;;;;;;;;;;;;5.96;67.70;100815.19;5082906;28;1715;-79
2023/01/05 11:39:44;;;;;;;;;;;;;;;5.92;67.79;100813.88;5083109;28;1385;-79
2023/01/05 11:42:11;;;;;;;;;;;;;;;5.86;67.98;100818.09;5080889;28;1458;-79
2023/01/05 11:44:38;;;;;;;;;;;;;;;5.98;67.83;100817.69;5078151;28;3873;-79
2023/01/05 11:47:06;;;;;;;;;;;;;;;6.03;67.31;100818.81;5080495;28;1530;-79
2023/01/05 11:49:33;;;;;;;;;;;;;;;5.96;67.55;100819.72;5082712;28;2167;-79
2023/01/05 11:52:00;;;;;;;;;;;;;;;5.94;67.70;100819.88;5082372;28;1526;-79
2023/01/05 11:54:27;;;;;;;;;;;;;;;5.87;68.00;100817.06;5082804;28;1941;-79
2023/01/05 11:56:54;;;;;;;;;;;;;;;5.89;68.00;100812.38;5081100;28;1477;-79
2023/01/05 11:59:21;;;;;;;;;;;;;;;5.99;67.76;100820.16;5078953;28;1787;-78
2023/01/05 12:01:51;;;;;;;;;;;;;;;5.92;67.93;100819.22;5079819;28;2268;-79
2023/01/05 12:04:19;;;;;;;;;;;;;;;5.99;67.97;100814.00;5096769;28;1550;-79
2023/01/05 12:06:46;;;;;;;;;;;;;;;6.03;67.78;100824.16;5078239;28;1680;-79
2023/01/05 12:09:14;;;;;;;;;;;;;;;6.08;67.33;100831.59;5083776;28;1833;-79
2023/01/05 12:11:42;;;;;;;;;;;;;;;5.91;68.13;100825.56;5062275;28;1360;-79
2023/01/05 12:14:09;;;;;;;;;;;;;;;5.97;67.83;100824.88;5081013;28;2670;-79
2023/01/05 12:16:36;;;;;;;;;;;;;;;6.06;67.29;100829.13;5081429;28;1936;-79
2023/01/05 12:19:03;;;;;;;;;;;;;;;6.05;67.50;100824.78;5098122;28;1681;-79
2023/01/05 12:21:29;;;;;;;;;;;;;;;5.99;67.66;100838.88;5082584;28;1750;-79
2023/01/05 12:23:56;;;;;;;;;;;;;;;6.07;67.61;100841.47;5080953;28;1437;-78
2023/01/05 12:26:23;;;;;;;;;;;;;;;6.03;67.67;100848.22;5081070;28;1428;-78
2023/01/05 12:28:50;;;;;;;;;;;;;;;6.07;67.76;100857.53;5077098;28;1405;-78
2023/01/05 12:31:17;;;;;;;;;;;;;;;6.05;67.44;100854.19;5080135;28;1779;-78
2023/01/05 12:33:44;;;;;;;;;;;;;;;6.09;67.92;100843.97;5081994;28;964;-78
2023/01/05 12:36:11;;;;;;;;;;;;;;;6.06;67.68;100849.66;5082405;28;1938;-78
2023/01/05 12:38:39;;;;;;;;;;;;;;;6.07;67.76;100860.19;5081547;28;1457;-78
2023/01/05 12:41:06;;;;;;;;;;;;;;;6.07;67.59;100854.84;5082226;28;1016;-78
2023/01/05 12:43:32;;;;;;;;;;;;;;;6.02;67.67;100846.53;5082336;28;1757;-78
2023/01/05 12:46:01;;;;;;;;;;;;;;;6.09;67.69;100860.84;5083831;28;1839;-78
2023/01/05 12:48:29;;;;;;;;;;;;;;;5.97;68.11;100862.31;5086730;28;1598;-78
2023/01/05 12:50:56;;;;;;;;;;;;;;;5.99;68.24;100859.44;5084936;28;1382;-78
2023/01/05 12:53:23;;;;;;;;;;;;;;;6.04;67.84;100860.56;5081974;28;1806;-78
2023/01/05 12:55:50;;;;;;;;;;;;;;;5.41;68.12;100781.59;5085447;28;1981;-78
2023/01/05 12:58:17;;;;;;;;;;;;;;;6.08;67.77;100882.41;5098064;28;1744;-78
2023/01/05 13:00:47;;;;;;;;;;;;;;;6.06;67.85;100892.47;5100873;28;1506;-78
2023/01/05 13:03:14;;;;;;;;;;;;;;;6.00;67.85;100910.09;5080095;28;868;-78
2023/01/05 13:05:41;;;;;;;;;;;;;;;6.07;68.00;100904.84;5084703;28;1621;-78
2023/01/05 13:08:09;;;;;;;;;;;;;;;6.07;67.92;100907.50;5084706;28;1398;-78
2023/01/05 13:10:36;;;;;;;;;;;;;;;6.03;67.86;100903.50;5083595;28;1806;-78
2023/01/05 13:13:03;;;;;;;;;;;;;;;5.99;68.32;100899.56;5078914;28;1299;-78
2023/01/05 13:15:30;;;;;;;;;;;;;;;5.89;68.65;100905.13;5099217;28;1956;-78
2023/01/05 13:17:57;;;;;;;;;;;;;;;6.04;68.16;100914.03;5085989;28;929;-78
2023/01/05 13:20:24;;;;;;;;;;;;;;;5.63;67.80;100844.03;5080127;28;1790;-78
2023/01/05 13:22:51;;;;;;;;;;;;;;;6.00;68.45;100919.91;5094242;28;917;-78
2023/01/05 13:25:18;;;;;;;;;;;;;;;6.07;67.78;100927.06;5080757;28;1566;-78
2023/01/05 13:27:45;;;;;;;;;;;;;;;6.05;68.18;100934.41;5084966;28;898;-78
2023/01/05 13:30:12;;;;;;;;;;;;;;;6.02;68.08;100942.81;5082186;28;1812;-78
2023/01/05 13:32:41;;;;;;;;;;;;;;;5.99;68.27;100950.34;5101288;28;1317;-78